sensor_id;sensor_type;location;lat;lon;timestamp;P1;durP1;ratioP1;P2;durP2;ratioP2
9094;SDS011;4583;49.796;9.902;2023-07-29T00:02:42;4.60;;;3.90;;
9094;SDS011;4583;49.796;9.902;2023-07-29T00:12:43;4.00;;;3.30;;
9094;SDS011;4583;49.796;9.902;2023-07-29T00:22:46;4.33;;;3.30;;
9094;SDS011;4583;49.796;9.902;2023-07-29T00:32:47;5.13;;;3.40;;
9094;SDS011;4583;49.796;9.902;2023-07-29T00:42:49;4.07;;;3.47;;
9094;SDS011;4583;49.796;9.902;2023-07-29T00:52:54;4.50;;;3.33;;
9094;SDS011;4583;49.796;9.902;2023-07-29T01:02:56;7.17;;;4.03;;
9094;SDS011;4583;49.796;9.902;2023-07-29T01:13:17;4.77;;;3.80;;
9094;SDS011;4583;49.796;9.902;2023-07-29T01:23:38;4.27;;;3.67;;
9094;SDS011;4583;49.796;9.902;2023-07-29T01:33:55;3.93;;;3.50;;
9094;SDS011;4583;49.796;9.902;2023-07-29T01:44:14;4.70;;;4.00;;
9094;SDS011;4583;49.796;9.902;2023-07-29T01:54:17;11.03;;;5.70;;
9094;SDS011;4583;49.796;9.902;2023-07-29T02:04:19;6.43;;;3.60;;
9094;SDS011;4583;49.796;9.902;2023-07-29T02:14:20;4.63;;;3.20;;
9094;SDS011;4583;49.796;9.902;2023-07-29T02:24:22;4.03;;;3.63;;
9094;SDS011;4583;49.796;9.902;2023-07-29T02:34:24;3.93;;;3.37;;
9094;SDS011;4583;49.796;9.902;2023-07-29T02:44:26;3.70;;;3.13;;
9094;SDS011;4583;49.796;9.902;2023-07-29T02:54:27;4.03;;;3.00;;
9094;SDS011;4583;49.796;9.902;2023-07-29T03:04:29;4.47;;;3.53;;
9094;SDS011;4583;49.796;9.902;2023-07-29T03:14:34;6.33;;;3.33;;
9094;SDS011;4583;49.796;9.902;2023-07-29T03:24:36;6.00;;;3.80;;
9094;SDS011;4583;49.796;9.902;2023-07-29T03:34:37;6.60;;;3.47;;
9094;SDS011;4583;49.796;9.902;2023-07-29T03:44:41;6.43;;;2.50;;
9094;SDS011;4583;49.796;9.902;2023-07-29T03:54:43;4.87;;;3.83;;
9094;SDS011;4583;49.796;9.902;2023-07-29T04:04:44;4.70;;;2.70;;
9094;SDS011;4583;49.796;9.902;2023-07-29T04:14:49;4.77;;;3.10;;
9094;SDS011;4583;49.796;9.902;2023-07-29T04:24:50;8.90;;;2.83;;
9094;SDS011;4583;49.796;9.902;2023-07-29T04:34:52;4.43;;;2.83;;
9094;SDS011;4583;49.796;9.902;2023-07-29T04:44:54;6.47;;;2.60;;
9094;SDS011;4583;49.796;9.902;2023-07-29T04:54:56;5.80;;;2.60;;
9094;SDS011;4583;49.796;9.902;2023-07-29T05:04:58;3.23;;;2.50;;
9094;SDS011;4583;49.796;9.902;2023-07-29T05:14:59;4.27;;;2.10;;
9094;SDS011;4583;49.796;9.902;2023-07-29T05:25:01;4.07;;;2.10;;
9094;SDS011;4583;49.796;9.902;2023-07-29T05:35:04;6.63;;;2.30;;
9094;SDS011;4583;49.796;9.902;2023-07-29T05:45:06;7.57;;;3.20;;
9094;SDS011;4583;49.796;9.902;2023-07-29T05:55:09;2.50;;;2.20;;
9094;SDS011;4583;49.796;9.902;2023-07-29T06:05:10;2.27;;;1.60;;
9094;SDS011;4583;49.796;9.902;2023-07-29T06:15:13;1.93;;;1.70;;
9094;SDS011;4583;49.796;9.902;2023-07-29T06:25:15;1.80;;;1.60;;
9094;SDS011;4583;49.796;9.902;2023-07-29T06:35:16;3.50;;;1.63;;
9094;SDS011;4583;49.796;9.902;2023-07-29T06:45:18;3.07;;;1.60;;
9094;SDS011;4583;49.796;9.902;2023-07-29T06:55:20;5.93;;;1.90;;
9094;SDS011;4583;49.796;9.902;2023-07-29T07:05:21;2.33;;;1.50;;
9094;SDS011;4583;49.796;9.902;2023-07-29T07:15:23;2.40;;;1.67;;
9094;SDS011;4583;49.796;9.902;2023-07-29T07:25:25;6.03;;;2.30;;
9094;SDS011;4583;49.796;9.902;2023-07-29T07:35:27;1.87;;;1.40;;
9094;SDS011;4583;49.796;9.902;2023-07-29T07:45:28;1.63;;;1.47;;
9094;SDS011;4583;49.796;9.902;2023-07-29T07:55:30;1.70;;;1.30;;
9094;SDS011;4583;49.796;9.902;2023-07-29T08:05:32;1.30;;;1.20;;
9094;SDS011;4583;49.796;9.902;2023-07-29T08:15:35;1.50;;;1.40;;
9094;SDS011;4583;49.796;9.902;2023-07-29T08:25:37;2.90;;;1.10;;
9094;SDS011;4583;49.796;9.902;2023-07-29T08:35:39;1.07;;;0.90;;
9094;SDS011;4583;49.796;9.902;2023-07-29T08:45:41;3.20;;;1.60;;
9094;SDS011;4583;49.796;9.902;2023-07-29T08:55:45;3.37;;;1.53;;
9094;SDS011;4583;49.796;9.902;2023-07-29T09:05:47;1.90;;;1.20;;
9094;SDS011;4583;49.796;9.902;2023-07-29T09:15:49;4.43;;;1.13;;
9094;SDS011;4583;49.796;9.902;2023-07-29T09:26:01;1.20;;;1.00;;
9094;SDS011;4583;49.796;9.902;2023-07-29T09:36:09;16.47;;;2.43;;
9094;SDS011;4583;49.796;9.902;2023-07-29T09:46:11;2.37;;;1.20;;
9094;SDS011;4583;49.796;9.902;2023-07-29T09:56:13;3.87;;;1.20;;
9094;SDS011;4583;49.796;9.902;2023-07-29T10:06:16;1.97;;;1.00;;
9094;SDS011;4583;49.796;9.902;2023-07-29T10:16:19;1.73;;;1.00;;
9094;SDS011;4583;49.796;9.902;2023-07-29T10:26:22;1.50;;;1.30;;
9094;SDS011;4583;49.796;9.902;2023-07-29T10:36:26;3.87;;;1.90;;
9094;SDS011;4583;49.796;9.902;2023-07-29T10:46:28;9.10;;;2.80;;
9094;SDS011;4583;49.796;9.902;2023-07-29T10:56:43;2.23;;;1.83;;
9094;SDS011;4583;49.796;9.902;2023-07-29T11:17:10;2.97;;;2.20;;
9094;SDS011;4583;49.796;9.902;2023-07-29T11:27:14;3.93;;;1.90;;
9094;SDS011;4583;49.796;9.902;2023-07-29T11:37:16;2.60;;;2.00;;
9094;SDS011;4583;49.796;9.902;2023-07-29T11:47:18;2.27;;;1.90;;
9094;SDS011;4583;49.796;9.902;2023-07-29T11:57:19;1.90;;;1.70;;
9094;SDS011;4583;49.796;9.902;2023-07-29T12:07:22;2.57;;;2.37;;
9094;SDS011;4583;49.796;9.902;2023-07-29T12:17:23;3.23;;;2.93;;
9094;SDS011;4583;49.796;9.902;2023-07-29T12:27:25;2.50;;;1.87;;
9094;SDS011;4583;49.796;9.902;2023-07-29T12:37:31;6.27;;;2.50;;
9094;SDS011;4583;49.796;9.902;2023-07-29T12:47:33;2.87;;;2.20;;
9094;SDS011;4583;49.796;9.902;2023-07-29T12:57:35;4.27;;;2.10;;
9094;SDS011;4583;49.796;9.902;2023-07-29T13:07:40;5.83;;;3.43;;
9094;SDS011;4583;49.796;9.902;2023-07-29T13:17:43;3.03;;;2.23;;
9094;SDS011;4583;49.796;9.902;2023-07-29T13:27:45;2.60;;;2.10;;
9094;SDS011;4583;49.796;9.902;2023-07-29T13:37:47;4.77;;;2.40;;
9094;SDS011;4583;49.796;9.902;2023-07-29T13:47:49;2.20;;;1.87;;
9094;SDS011;4583;49.796;9.902;2023-07-29T13:57:52;3.20;;;1.90;;
9094;SDS011;4583;49.796;9.902;2023-07-29T14:07:54;2.10;;;1.80;;
9094;SDS011;4583;49.796;9.902;2023-07-29T14:17:56;4.10;;;2.10;;
9094;SDS011;4583;49.796;9.902;2023-07-29T14:27:58;2.10;;;1.90;;
9094;SDS011;4583;49.796;9.902;2023-07-29T14:37:59;1.73;;;1.63;;
9094;SDS011;4583;49.796;9.902;2023-07-29T14:48:01;3.22;;;1.67;;
9094;SDS011;4583;49.796;9.902;2023-07-29T14:58:04;1.45;;;1.35;;
9094;SDS011;4583;49.796;9.902;2023-07-29T15:08:05;1.73;;;1.55;;
9094;SDS011;4583;49.796;9.902;2023-07-29T15:18:07;1.98;;;1.60;;
9094;SDS011;4583;49.796;9.902;2023-07-29T15:28:09;1.95;;;1.67;;
9094;SDS011;4583;49.796;9.902;2023-07-29T15:38:11;1.75;;;1.50;;
9094;SDS011;4583;49.796;9.902;2023-07-29T15:48:13;1.80;;;1.70;;
9094;SDS011;4583;49.796;9.902;2023-07-29T15:58:14;2.30;;;1.73;;
9094;SDS011;4583;49.796;9.902;2023-07-29T16:08:16;3.23;;;1.70;;
9094;SDS011;4583;49.796;9.902;2023-07-29T16:18:18;3.20;;;1.63;;
9094;SDS011;4583;49.796;9.902;2023-07-29T16:28:19;2.00;;;1.70;;
9094;SDS011;4583;49.796;9.902;2023-07-29T16:38:21;10.53;;;2.07;;
9094;SDS011;4583;49.796;9.902;2023-07-29T16:48:24;2.55;;;1.83;;
9094;SDS011;4583;49.796;9.902;2023-07-29T16:58:26;1.73;;;1.63;;
9094;SDS011;4583;49.796;9.902;2023-07-29T17:08:28;4.88;;;1.60;;
9094;SDS011;4583;49.796;9.902;2023-07-29T17:18:30;3.67;;;1.50;;
9094;SDS011;4583;49.796;9.902;2023-07-29T17:28:31;1.90;;;1.60;;
9094;SDS011;4583;49.796;9.902;2023-07-29T17:38:33;3.07;;;1.50;;
9094;SDS011;4583;49.796;9.902;2023-07-29T17:48:35;3.33;;;1.90;;
9094;SDS011;4583;49.796;9.902;2023-07-29T17:58:37;4.30;;;2.10;;
9094;SDS011;4583;49.796;9.902;2023-07-29T18:08:39;2.33;;;1.90;;
9094;SDS011;4583;49.796;9.902;2023-07-29T18:18:41;2.23;;;1.73;;
9094;SDS011;4583;49.796;9.902;2023-07-29T18:28:43;4.03;;;2.00;;
9094;SDS011;4583;49.796;9.902;2023-07-29T18:38:44;1.90;;;1.70;;
9094;SDS011;4583;49.796;9.902;2023-07-29T18:48:46;2.70;;;2.50;;
9094;SDS011;4583;49.796;9.902;2023-07-29T18:58:48;2.93;;;2.20;;
9094;SDS011;4583;49.796;9.902;2023-07-29T19:08:49;3.97;;;1.90;;
9094;SDS011;4583;49.796;9.902;2023-07-29T19:18:52;5.17;;;2.30;;
9094;SDS011;4583;49.796;9.902;2023-07-29T19:28:54;4.83;;;2.20;;
9094;SDS011;4583;49.796;9.902;2023-07-29T19:38:55;3.93;;;1.80;;
9094;SDS011;4583;49.796;9.902;2023-07-29T19:48:57;3.17;;;2.00;;
9094;SDS011;4583;49.796;9.902;2023-07-29T19:58:59;3.50;;;2.10;;
9094;SDS011;4583;49.796;9.902;2023-07-29T20:09:01;3.73;;;1.90;;
9094;SDS011;4583;49.796;9.902;2023-07-29T20:19:02;2.53;;;1.70;;
9094;SDS011;4583;49.796;9.902;2023-07-29T20:29:04;2.10;;;1.90;;
9094;SDS011;4583;49.796;9.902;2023-07-29T20:39:06;2.47;;;2.00;;
9094;SDS011;4583;49.796;9.902;2023-07-29T20:49:08;2.57;;;2.00;;
9094;SDS011;4583;49.796;9.902;2023-07-29T20:59:09;2.80;;;2.00;;
9094;SDS011;4583;49.796;9.902;2023-07-29T21:09:12;4.43;;;2.10;;
9094;SDS011;4583;49.796;9.902;2023-07-29T21:19:14;2.50;;;2.30;;
9094;SDS011;4583;49.796;9.902;2023-07-29T21:29:16;4.70;;;2.27;;
9094;SDS011;4583;49.796;9.902;2023-07-29T21:39:18;2.20;;;2.00;;
9094;SDS011;4583;49.796;9.902;2023-07-29T21:49:19;4.60;;;2.00;;
9094;SDS011;4583;49.796;9.902;2023-07-29T21:59:21;2.60;;;2.40;;
9094;SDS011;4583;49.796;9.902;2023-07-29T22:09:23;3.57;;;2.43;;
9094;SDS011;4583;49.796;9.902;2023-07-29T22:19:25;2.93;;;2.10;;
9094;SDS011;4583;49.796;9.902;2023-07-29T22:29:27;5.20;;;2.00;;
9094;SDS011;4583;49.796;9.902;2023-07-29T22:39:28;2.40;;;2.20;;
9094;SDS011;4583;49.796;9.902;2023-07-29T22:49:31;3.43;;;2.13;;
9094;SDS011;4583;49.796;9.902;2023-07-29T22:59:33;2.80;;;2.27;;
9094;SDS011;4583;49.796;9.902;2023-07-29T23:09:35;3.50;;;2.30;;
9094;SDS011;4583;49.796;9.902;2023-07-29T23:19:37;4.23;;;2.33;;
9094;SDS011;4583;49.796;9.902;2023-07-29T23:29:38;2.87;;;2.33;;
9094;SDS011;4583;49.796;9.902;2023-07-29T23:39:40;3.37;;;2.73;;
9094;SDS011;4583;49.796;9.902;2023-07-29T23:49:42;2.93;;;2.50;;
9094;SDS011;4583;49.796;9.902;2023-07-29T23:59:44;4.77;;;2.37;;
